createdAt,value
2023-03-29T00:02:09.248Z,51.77
2023-03-29T00:04:36.340Z,51.57
2023-03-29T00:07:04.502Z,51.59
2023-03-29T00:09:33.083Z,51.41
2023-03-29T00:12:01.338Z,51.34
2023-03-29T00:14:30.665Z,51.67
2023-03-29T00:16:59.007Z,51.47
2023-03-29T00:19:26.131Z,51.80
2023-03-29T00:21:53.060Z,51.57
2023-03-29T00:24:21.264Z,51.49
2023-03-29T00:26:48.401Z,51.43
2023-03-29T00:29:15.909Z,51.48
2023-03-29T00:31:45.754Z,51.54
2023-03-29T00:34:12.676Z,51.35
2023-03-29T00:36:40.155Z,51.83
2023-03-29T00:39:07.291Z,51.49
2023-03-29T00:41:34.093Z,51.88
2023-03-29T00:44:04.545Z,51.83
2023-03-29T00:46:34.729Z,51.29
2023-03-29T00:49:09.660Z,51.48
2023-03-29T00:51:39.576Z,51.67
2023-03-29T00:54:10.414Z,51.56
2023-03-29T00:56:40.348Z,51.42
2023-03-29T00:59:13.746Z,51.54
2023-03-29T01:01:54.341Z,51.69
2023-03-29T01:04:33.881Z,51.67
2023-03-29T01:07:17.866Z,51.67
2023-03-29T01:09:54.888Z,52.08
2023-03-29T01:12:29.703Z,51.62
2023-03-29T01:15:04.779Z,51.49
2023-03-29T01:17:33.080Z,51.71
2023-03-29T01:20:23.165Z,51.50
2023-03-29T01:23:27.143Z,52.30
2023-03-29T01:26:14.128Z,51.93
2023-03-29T01:28:47.258Z,51.97
2023-03-29T01:31:29.292Z,51.90
2023-03-29T01:34:08.062Z,51.87
2023-03-29T01:36:49.292Z,51.99
2023-03-29T01:39:16.672Z,51.82
2023-03-29T01:42:13.808Z,51.95
2023-03-29T01:45:16.058Z,52.29
2023-03-29T01:47:59.833Z,52.07
2023-03-29T01:50:47.517Z,52.54
2023-03-29T01:53:24.663Z,52.41
2023-03-29T01:56:06.048Z,52.37
2023-03-29T01:58:38.834Z,52.43
2023-03-29T02:01:10.287Z,52.49
2023-03-29T02:03:42.715Z,52.08
2023-03-29T02:06:14.405Z,52.36
2023-03-29T02:08:42.783Z,52.60
2023-03-29T02:11:09.744Z,52.54
2023-03-29T02:13:36.729Z,52.45
2023-03-29T02:16:09.185Z,52.54
2023-03-29T02:18:36.284Z,52.47
2023-03-29T02:21:03.306Z,52.89
2023-03-29T02:23:47.498Z,52.80
2023-03-29T02:26:14.939Z,52.84
2023-03-29T02:28:43.051Z,52.62
2023-03-29T02:31:43.077Z,52.60
2023-03-29T02:34:32.834Z,52.63
2023-03-29T02:37:06.604Z,52.70
2023-03-29T02:39:34.655Z,52.46
2023-03-29T02:42:03.013Z,52.65
2023-03-29T02:44:33.503Z,52.79
2023-03-29T02:47:15.546Z,52.76
2023-03-29T02:49:43.075Z,53.17
2023-03-29T02:52:16.693Z,53.10
2023-03-29T02:54:46.618Z,53.35
2023-03-29T02:57:13.531Z,53.23
2023-03-29T02:59:43.702Z,53.08
2023-03-29T03:02:12.182Z,53.15
2023-03-29T03:04:39.000Z,53.26
2023-03-29T03:07:05.793Z,53.39
2023-03-29T03:09:32.621Z,53.34
2023-03-29T03:11:59.435Z,53.46
2023-03-29T03:14:28.107Z,53.78
2023-03-29T03:16:55.135Z,53.61
2023-03-29T03:19:22.672Z,53.67
2023-03-29T03:21:49.501Z,53.78
2023-03-29T03:24:17.589Z,54.22
2023-03-29T03:26:46.237Z,54.30
2023-03-29T03:29:15.466Z,53.91
2023-03-29T03:31:42.903Z,54.04
2023-03-29T03:34:09.732Z,54.20
2023-03-29T03:36:36.914Z,54.41
2023-03-29T03:39:07.373Z,54.38
2023-03-29T03:41:34.995Z,54.45
2023-03-29T03:44:01.790Z,54.47
2023-03-29T03:46:29.791Z,54.38
2023-03-29T03:48:57.564Z,54.82
2023-03-29T03:51:24.385Z,54.66
2023-03-29T03:53:51.615Z,54.55
2023-03-29T03:56:18.385Z,54.48
2023-03-29T03:58:45.683Z,54.86
2023-03-29T04:01:12.472Z,54.75
2023-03-29T04:03:39.387Z,54.68
2023-03-29T04:06:06.543Z,54.97
2023-03-29T04:08:33.354Z,54.73
2023-03-29T04:11:00.451Z,54.96
2023-03-29T04:13:27.880Z,55.27
2023-03-29T04:15:57.589Z,55.42
2023-03-29T04:18:26.283Z,55.34
2023-03-29T04:20:53.150Z,55.37
2023-03-29T04:23:20.014Z,55.61
2023-03-29T04:25:46.946Z,55.82
2023-03-29T04:28:13.788Z,55.90
2023-03-29T04:30:40.913Z,56.03
2023-03-29T04:33:07.755Z,56.29
2023-03-29T04:35:34.800Z,56.23
2023-03-29T04:38:01.921Z,56.25
2023-03-29T04:40:29.051Z,56.14
2023-03-29T04:42:55.857Z,56.27
2023-03-29T04:45:22.799Z,56.41
2023-03-29T04:47:49.813Z,56.41
2023-03-29T04:50:16.611Z,56.47
2023-03-29T04:52:45.314Z,56.77
2023-03-29T04:55:12.745Z,56.66
2023-03-29T04:57:39.616Z,56.77
2023-03-29T05:00:15.058Z,56.62
2023-03-29T05:02:43.998Z,56.97
2023-03-29T05:05:12.067Z,56.59
2023-03-29T05:07:39.260Z,56.71
2023-03-29T05:10:07.200Z,57.04
2023-03-29T05:12:33.986Z,57.16
2023-03-29T05:15:01.160Z,57.05
2023-03-29T05:17:28.184Z,57.01
2023-03-29T05:19:55.012Z,57.00
2023-03-29T05:22:22.045Z,57.42
2023-03-29T05:24:48.941Z,57.36
2023-03-29T05:27:16.990Z,57.49
2023-03-29T05:29:44.738Z,57.36
2023-03-29T05:32:11.816Z,57.44
2023-03-29T05:34:39.134Z,57.26
2023-03-29T05:37:06.055Z,57.66
2023-03-29T05:39:34.608Z,57.45
2023-03-29T05:42:04.387Z,57.77
2023-03-29T05:44:31.195Z,57.45
2023-03-29T05:46:58.081Z,57.75
2023-03-29T05:49:25.410Z,57.48
2023-03-29T05:51:52.318Z,57.74
2023-03-29T05:54:19.088Z,57.87
2023-03-29T05:56:45.940Z,57.81
2023-03-29T05:59:13.729Z,57.74
2023-03-29T06:01:41.722Z,57.92
2023-03-29T06:04:08.601Z,57.68
2023-03-29T06:06:36.263Z,57.75
2023-03-29T06:09:03.355Z,57.86
2023-03-29T06:11:30.462Z,57.95
2023-03-29T06:13:57.566Z,57.91
2023-03-29T06:16:25.813Z,58.02
2023-03-29T06:18:53.180Z,57.84
2023-03-29T06:21:19.931Z,58.08
2023-03-29T06:23:47.332Z,57.99
2023-03-29T06:26:14.297Z,58.13
2023-03-29T06:28:41.991Z,57.75
2023-03-29T06:31:09.970Z,57.73
2023-03-29T06:33:38.063Z,58.14
2023-03-29T06:36:05.493Z,57.87
2023-03-29T06:38:32.333Z,57.84
2023-03-29T06:41:06.305Z,57.71
2023-03-29T06:43:34.660Z,58.32
2023-03-29T06:46:02.133Z,58.24
2023-03-29T06:48:29.280Z,57.93
2023-03-29T06:50:56.385Z,58.18
2023-03-29T06:53:23.238Z,57.98
2023-03-29T06:55:52.420Z,57.96
2023-03-29T06:58:19.608Z,57.94
2023-03-29T07:00:46.822Z,58.30
2023-03-29T07:03:20.208Z,58.11
2023-03-29T07:05:47.740Z,57.84
2023-03-29T07:08:16.455Z,57.99
2023-03-29T07:10:47.527Z,57.91
2023-03-29T07:13:15.534Z,57.90
2023-03-29T07:15:43.976Z,57.69
2023-03-29T07:18:12.672Z,57.85
2023-03-29T07:20:40.404Z,57.65
2023-03-29T07:23:09.389Z,57.27
2023-03-29T07:25:38.216Z,57.31
2023-03-29T07:28:06.072Z,57.01
2023-03-29T07:30:33.219Z,56.98
2023-03-29T07:33:00.536Z,57.13
2023-03-29T07:35:28.284Z,56.82
2023-03-29T07:37:55.792Z,56.59
2023-03-29T07:40:23.730Z,56.64
2023-03-29T07:42:54.182Z,56.53
2023-03-29T07:45:26.612Z,56.25
2023-03-29T07:47:59.178Z,56.54
2023-03-29T07:50:27.712Z,56.45
2023-03-29T07:52:55.092Z,56.45
2023-03-29T07:55:22.175Z,56.41
2023-03-29T07:57:49.962Z,56.28
2023-03-29T08:00:19.529Z,56.22
2023-03-29T08:02:49.833Z,56.15
2023-03-29T08:05:26.098Z,56.15
2023-03-29T08:08:00.875Z,56.11
2023-03-29T08:10:28.387Z,55.78
2023-03-29T08:12:55.571Z,55.69
2023-03-29T08:15:22.756Z,55.72
2023-03-29T08:17:49.593Z,55.79
2023-03-29T08:20:16.432Z,55.84
2023-03-29T08:22:43.527Z,55.86
2023-03-29T08:25:11.991Z,55.85
2023-03-29T08:27:39.704Z,55.79
2023-03-29T08:30:09.323Z,55.88
2023-03-29T08:32:37.465Z,55.70
2023-03-29T08:35:09.591Z,55.83
2023-03-29T08:37:37.296Z,55.75
2023-03-29T08:40:05.505Z,55.41
2023-03-29T08:43:12.778Z,55.74
2023-03-29T08:46:07.435Z,55.43
2023-03-29T08:48:42.320Z,55.72
2023-03-29T08:51:31.692Z,55.31
2023-03-29T08:54:19.285Z,55.19
2023-03-29T08:56:48.031Z,55.15
2023-03-29T08:59:29.236Z,55.10
2023-03-29T09:01:58.742Z,54.88
2023-03-29T09:04:31.614Z,55.02
2023-03-29T09:06:59.268Z,54.90
2023-03-29T09:09:34.103Z,54.87
2023-03-29T09:12:20.164Z,54.69
2023-03-29T09:15:11.856Z,54.57
2023-03-29T09:18:17.370Z,54.70
2023-03-29T09:21:35.491Z,54.95
2023-03-29T09:24:28.915Z,54.84
2023-03-29T09:27:27.835Z,54.72
2023-03-29T09:30:25.850Z,54.60
2023-03-29T09:33:00.723Z,54.46
2023-03-29T09:35:42.498Z,53.98
2023-03-29T09:38:13.977Z,53.77
2023-03-29T09:40:47.933Z,53.79
2023-03-29T09:43:29.706Z,53.75
2023-03-29T09:46:01.777Z,53.40
2023-03-29T09:48:34.753Z,53.50
2023-03-29T09:51:03.797Z,53.61
2023-03-29T09:53:30.747Z,53.66
2023-03-29T09:55:57.514Z,53.76
2023-03-29T09:58:27.647Z,53.96
2023-03-29T10:00:59.482Z,53.86
2023-03-29T10:03:29.432Z,53.93
2023-03-29T10:05:59.900Z,54.14
2023-03-29T10:08:39.183Z,54.38
2023-03-29T10:11:34.019Z,54.53
2023-03-29T10:14:11.569Z,55.12
2023-03-29T10:16:41.930Z,54.87
2023-03-29T10:19:18.437Z,55.01
2023-03-29T10:21:48.985Z,54.80
2023-03-29T10:24:24.469Z,54.86
2023-03-29T10:26:55.532Z,54.99
2023-03-29T10:29:25.002Z,54.83
2023-03-29T10:31:52.817Z,54.74
2023-03-29T10:34:20.748Z,54.47
2023-03-29T10:36:58.985Z,54.34
2023-03-29T10:39:29.784Z,54.32
2023-03-29T10:41:59.884Z,54.20
2023-03-29T10:44:34.572Z,54.04
2023-03-29T10:47:20.629Z,54.07
2023-03-29T10:49:56.479Z,54.04
2023-03-29T10:52:24.411Z,54.01
2023-03-29T10:54:54.860Z,54.15
2023-03-29T10:57:46.053Z,54.13
2023-03-29T11:00:34.377Z,54.10
2023-03-29T11:03:28.711Z,54.36
2023-03-29T11:06:28.529Z,54.40
2023-03-29T11:08:59.661Z,54.27
2023-03-29T11:12:14.925Z,54.03
2023-03-29T11:15:13.289Z,54.39
2023-03-29T11:17:59.723Z,54.49
2023-03-29T11:20:54.066Z,54.38
2023-03-29T11:23:37.484Z,54.75
2023-03-29T11:26:18.254Z,54.70
2023-03-29T11:28:53.177Z,54.80
2023-03-29T11:31:39.668Z,54.63
2023-03-29T11:34:49.131Z,54.77
2023-03-29T11:37:38.378Z,54.73
2023-03-29T11:41:05.133Z,55.09
2023-03-29T11:44:27.265Z,54.88
2023-03-29T11:47:09.674Z,54.75
2023-03-29T11:49:49.089Z,54.59
2023-03-29T11:52:30.062Z,54.22
2023-03-29T11:55:09.457Z,53.96
2023-03-29T11:57:59.447Z,53.86
2023-03-29T12:00:34.856Z,53.51
2023-03-29T12:03:13.194Z,53.47
2023-03-29T12:05:56.924Z,53.36
2023-03-29T12:08:35.615Z,53.42
2023-03-29T12:11:21.144Z,53.33
2023-03-29T12:13:52.592Z,52.86
2023-03-29T12:16:33.388Z,53.38
2023-03-29T12:19:11.241Z,53.29
2023-03-29T12:21:39.404Z,53.42
2023-03-29T12:24:06.482Z,52.97
2023-03-29T12:27:21.180Z,53.38
2023-03-29T12:30:21.496Z,53.16
2023-03-29T12:33:09.106Z,53.00
2023-03-29T12:36:16.296Z,53.00
2023-03-29T12:38:45.047Z,53.01
2023-03-29T12:41:19.047Z,53.00
2023-03-29T12:43:48.008Z,52.62
2023-03-29T12:46:27.051Z,52.58
2023-03-29T12:48:57.833Z,52.94
2023-03-29T12:51:32.575Z,52.75
2023-03-29T12:54:14.479Z,52.78
2023-03-29T12:56:52.003Z,52.66
2023-03-29T12:59:45.623Z,52.40
2023-03-29T13:02:21.727Z,52.30
2023-03-29T13:04:55.815Z,52.15
2023-03-29T13:07:22.594Z,52.14
2023-03-29T13:09:58.542Z,52.08
2023-03-29T13:12:35.558Z,52.14
2023-03-29T13:15:07.619Z,52.49
2023-03-29T13:18:03.158Z,51.99
2023-03-29T13:20:47.736Z,52.03
2023-03-29T13:23:37.075Z,51.99
2023-03-29T13:27:21.465Z,52.51
2023-03-29T13:30:22.721Z,52.42
2023-03-29T13:32:52.508Z,52.15
2023-03-29T13:35:44.347Z,51.94
2023-03-29T13:38:22.971Z,51.83
2023-03-29T13:40:52.786Z,51.67
2023-03-29T13:43:19.410Z,51.77
2023-03-29T13:46:36.426Z,51.86
2023-03-29T13:49:20.442Z,51.93
2023-03-29T13:51:53.170Z,51.81
2023-03-29T13:54:44.036Z,51.92
2023-03-29T13:57:23.201Z,52.14
2023-03-29T14:00:48.284Z,52.47
2023-03-29T14:03:20.174Z,52.60
2023-03-29T14:05:58.347Z,52.54
2023-03-29T14:08:37.315Z,52.54
2023-03-29T14:11:08.320Z,52.63
2023-03-29T14:13:35.277Z,52.73
2023-03-29T14:16:08.965Z,52.39
2023-03-29T14:18:40.542Z,52.83
2023-03-29T14:21:08.424Z,53.24
2023-03-29T14:23:37.601Z,53.20
2023-03-29T14:26:07.998Z,53.39
2023-03-29T14:28:34.794Z,53.38
2023-03-29T14:31:01.551Z,53.55
2023-03-29T14:33:37.960Z,53.54
2023-03-29T14:36:05.742Z,53.63
2023-03-29T14:38:32.977Z,53.75
2023-03-29T14:41:01.880Z,53.83
2023-03-29T14:43:31.860Z,53.85
2023-03-29T14:46:01.261Z,53.95
2023-03-29T14:48:28.802Z,53.79
2023-03-29T14:50:55.673Z,54.03
2023-03-29T14:53:24.146Z,53.90
2023-03-29T14:55:52.962Z,53.70
2023-03-29T14:58:23.854Z,53.57
2023-03-29T15:00:52.314Z,53.71
2023-03-29T15:03:26.118Z,53.55
2023-03-29T15:06:02.790Z,53.58
2023-03-29T15:08:32.926Z,53.57
2023-03-29T15:11:00.602Z,53.49
2023-03-29T15:13:28.330Z,53.39
2023-03-29T15:16:00.754Z,53.61
2023-03-29T15:18:35.295Z,53.46
2023-03-29T15:21:02.383Z,53.55
2023-03-29T15:23:38.405Z,53.58
2023-03-29T15:26:21.547Z,53.82
2023-03-29T15:28:55.572Z,53.98
2023-03-29T15:31:32.759Z,54.37
2023-03-29T15:34:10.237Z,54.08
2023-03-29T15:36:45.026Z,54.28
2023-03-29T15:39:17.661Z,54.52
2023-03-29T15:41:46.709Z,54.46
2023-03-29T15:44:19.366Z,54.43
2023-03-29T15:46:46.595Z,54.68
2023-03-29T15:49:14.118Z,54.71
2023-03-29T15:51:41.483Z,54.72
2023-03-29T15:54:09.135Z,54.45
2023-03-29T15:56:51.946Z,54.60
2023-03-29T15:59:19.138Z,54.60
2023-03-29T16:01:46.607Z,54.88
2023-03-29T16:04:17.558Z,55.13
2023-03-29T16:06:48.570Z,54.83
2023-03-29T16:09:17.036Z,55.12
2023-03-29T16:11:44.897Z,55.22
2023-03-29T16:14:31.240Z,55.00
2023-03-29T16:16:59.853Z,55.14
2023-03-29T16:19:28.152Z,55.19
2023-03-29T16:21:55.613Z,55.20
2023-03-29T16:24:25.908Z,55.36
2023-03-29T16:26:55.699Z,55.28
2023-03-29T16:29:24.482Z,55.24
2023-03-29T16:31:52.617Z,55.37
2023-03-29T16:34:20.492Z,55.31
2023-03-29T16:36:47.916Z,55.51
2023-03-29T16:39:15.838Z,55.35
2023-03-29T16:41:43.047Z,55.32
2023-03-29T16:44:16.809Z,55.38
2023-03-29T16:46:44.539Z,55.50
2023-03-29T16:49:18.638Z,55.82
2023-03-29T16:51:48.723Z,55.65
2023-03-29T16:54:17.197Z,55.87
2023-03-29T16:56:44.456Z,55.81
2023-03-29T16:59:11.895Z,55.96
2023-03-29T17:01:38.807Z,55.98
2023-03-29T17:04:05.898Z,56.08
2023-03-29T17:06:32.787Z,56.02
2023-03-29T17:09:00.586Z,56.08
2023-03-29T17:11:28.139Z,56.15
2023-03-29T17:13:55.104Z,56.37
2023-03-29T17:16:22.077Z,56.16
2023-03-29T17:18:48.943Z,56.21
2023-03-29T17:21:16.040Z,56.47
2023-03-29T17:23:42.887Z,56.52
2023-03-29T17:26:09.713Z,56.47
2023-03-29T17:28:37.056Z,56.82
2023-03-29T17:31:07.866Z,57.15
2023-03-29T17:33:35.948Z,57.43
2023-03-29T17:36:04.533Z,57.68
2023-03-29T17:38:33.863Z,57.68
2023-03-29T17:41:01.393Z,57.98
2023-03-29T17:43:28.196Z,58.15
2023-03-29T17:45:55.500Z,58.16
2023-03-29T17:48:24.180Z,58.22
2023-03-29T17:50:51.335Z,58.11
2023-03-29T17:53:18.097Z,58.22
2023-03-29T17:55:45.804Z,58.14
2023-03-29T17:58:12.696Z,58.37
2023-03-29T18:00:39.534Z,58.25
2023-03-29T18:03:06.406Z,58.30
2023-03-29T18:05:35.347Z,58.33
2023-03-29T18:08:02.393Z,58.35
2023-03-29T18:10:29.492Z,58.37
2023-03-29T18:12:56.406Z,58.47
2023-03-29T18:15:23.174Z,58.58
2023-03-29T18:17:49.968Z,58.67
2023-03-29T18:20:17.199Z,58.61
2023-03-29T18:22:44.491Z,58.53
2023-03-29T18:25:11.340Z,58.67
2023-03-29T18:27:39.607Z,58.82
2023-03-29T18:30:08.685Z,58.46
2023-03-29T18:32:36.174Z,58.77
2023-03-29T18:35:03.386Z,58.91
2023-03-29T18:37:30.143Z,58.59
2023-03-29T18:39:56.958Z,58.75
2023-03-29T18:42:23.826Z,58.68
2023-03-29T18:44:51.183Z,58.63
2023-03-29T18:47:20.621Z,58.60
2023-03-29T18:49:47.915Z,58.67
2023-03-29T18:52:14.718Z,58.72
2023-03-29T18:54:41.714Z,58.57
2023-03-29T18:57:08.693Z,58.75
2023-03-29T18:59:38.078Z,58.70
2023-03-29T19:02:04.903Z,58.76
2023-03-29T19:04:31.756Z,58.75
2023-03-29T19:07:01.182Z,58.78
2023-03-29T19:09:27.925Z,58.73
2023-03-29T19:11:54.733Z,58.86
2023-03-29T19:14:24.039Z,58.62
2023-03-29T19:16:52.150Z,58.63
2023-03-29T19:19:21.310Z,58.56
2023-03-29T19:21:48.768Z,58.79
2023-03-29T19:24:16.565Z,59.21
2023-03-29T19:26:44.326Z,58.73
2023-03-29T19:29:11.558Z,58.93
2023-03-29T19:31:38.584Z,58.79
2023-03-29T19:34:07.730Z,58.91
2023-03-29T19:36:34.523Z,58.98
2023-03-29T19:39:01.629Z,59.12
2023-03-29T19:41:28.650Z,59.33
2023-03-29T19:43:55.609Z,59.44
2023-03-29T19:46:22.685Z,59.61
2023-03-29T19:48:51.619Z,59.77
2023-03-29T19:51:18.470Z,59.52
2023-03-29T19:53:45.304Z,59.63
2023-03-29T19:56:14.242Z,59.54
2023-03-29T19:58:41.310Z,59.69
2023-03-29T20:01:08.360Z,59.82
2023-03-29T20:03:35.972Z,60.04
2023-03-29T20:06:03.049Z,59.74
2023-03-29T20:08:29.951Z,59.96
2023-03-29T20:10:58.806Z,59.86
2023-03-29T20:13:37.501Z,60.13
2023-03-29T20:16:11.215Z,60.20
2023-03-29T20:18:38.583Z,60.23
2023-03-29T20:21:08.976Z,60.26
2023-03-29T20:23:36.324Z,60.24
2023-03-29T20:26:03.189Z,60.46
2023-03-29T20:28:30.328Z,60.54
2023-03-29T20:30:57.194Z,60.62
2023-03-29T20:33:23.997Z,60.78
2023-03-29T20:35:50.869Z,60.98
2023-03-29T20:38:17.649Z,60.99
2023-03-29T20:40:44.903Z,61.07
2023-03-29T20:43:13.284Z,61.16
2023-03-29T20:45:52.749Z,61.24
2023-03-29T20:48:22.769Z,61.37
2023-03-29T20:50:49.841Z,61.56
2023-03-29T20:53:18.170Z,61.54
2023-03-29T20:55:45.243Z,61.56
2023-03-29T20:58:12.143Z,61.65
2023-03-29T21:00:40.320Z,61.72
2023-03-29T21:03:08.441Z,61.78
2023-03-29T21:05:35.531Z,61.52
2023-03-29T21:08:03.584Z,61.78
2023-03-29T21:10:30.787Z,61.96
2023-03-29T21:13:00.448Z,62.11
2023-03-29T21:15:30.210Z,62.04
2023-03-29T21:17:57.139Z,62.14
2023-03-29T21:20:24.200Z,62.19
2023-03-29T21:22:51.104Z,62.33
2023-03-29T21:25:18.652Z,62.28
2023-03-29T21:27:45.587Z,62.10
2023-03-29T21:30:12.670Z,62.18
2023-03-29T21:32:39.475Z,62.56
2023-03-29T21:35:07.059Z,62.38
2023-03-29T21:37:33.951Z,62.69
2023-03-29T21:40:01.212Z,62.58
2023-03-29T21:42:27.983Z,62.31
2023-03-29T21:44:54.737Z,62.82
2023-03-29T21:47:21.509Z,62.58
2023-03-29T21:49:48.529Z,62.71
2023-03-29T21:52:15.295Z,63.00
2023-03-29T21:54:42.167Z,63.03
2023-03-29T21:57:09.016Z,63.04
2023-03-29T21:59:35.788Z,63.21
2023-03-29T22:02:02.641Z,63.04
2023-03-29T22:04:36.857Z,63.19
2023-03-29T22:07:06.111Z,63.11
2023-03-29T22:09:35.242Z,63.15
2023-03-29T22:12:03.079Z,63.32
2023-03-29T22:14:34.882Z,63.46
2023-03-29T22:17:05.656Z,63.42
2023-03-29T22:19:33.893Z,63.57
2023-03-29T22:22:01.475Z,63.66
2023-03-29T22:24:29.161Z,63.59
2023-03-29T22:26:57.023Z,63.77
2023-03-29T22:29:23.824Z,63.69
2023-03-29T22:31:50.810Z,63.76
2023-03-29T22:34:17.746Z,63.74
2023-03-29T22:36:44.543Z,63.92
2023-03-29T22:39:11.991Z,63.97
2023-03-29T22:41:38.892Z,64.03
2023-03-29T22:44:05.851Z,64.16
2023-03-29T22:46:32.698Z,64.32
2023-03-29T22:48:59.756Z,64.12
2023-03-29T22:51:27.122Z,64.20
2023-03-29T22:53:53.985Z,64.34
2023-03-29T22:56:21.849Z,64.34
2023-03-29T22:58:48.857Z,64.45
2023-03-29T23:01:15.724Z,64.40
2023-03-29T23:03:42.546Z,64.50
2023-03-29T23:06:09.528Z,64.28
2023-03-29T23:08:36.334Z,64.38
2023-03-29T23:11:04.413Z,64.14
2023-03-29T23:13:33.229Z,64.58
2023-03-29T23:16:02.229Z,64.58
2023-03-29T23:18:31.402Z,64.60
2023-03-29T23:21:00.156Z,64.53
2023-03-29T23:23:28.463Z,64.58
2023-03-29T23:25:55.937Z,64.45
2023-03-29T23:28:27.206Z,64.44
2023-03-29T23:31:09.347Z,64.36
2023-03-29T23:33:40.282Z,64.51
2023-03-29T23:36:14.260Z,64.48
2023-03-29T23:38:42.292Z,64.52
2023-03-29T23:41:12.670Z,64.54
2023-03-29T23:43:42.297Z,64.59
2023-03-29T23:46:16.498Z,64.53
2023-03-29T23:48:48.951Z,64.64
2023-03-29T23:51:22.624Z,64.58
2023-03-29T23:53:50.543Z,64.94
2023-03-29T23:56:17.460Z,64.89
2023-03-29T23:58:44.490Z,64.88
